Time;durP1;ratioP1;P1;durP2;ratioP2;P2;SDS_P1;SDS_P2;PMS_P1;PMS_P2;Temp;Humidity;BMP_temperature;BMP_pressure;BME280_temperature;BME280_humidity;BME280_pressure;Samples;Min_cycle;Max_cycle;Signal;HPM_P1;HPM_P2
2024/02/01 00:01:43;;;;;;;15.77;13.90;;;21.00;69.30;;;;;;4996695;28;20446;-82
2024/02/01 00:04:10;;;;;;;15.18;12.55;;;20.90;69.30;;;;;;5009494;28;20207;-82
2024/02/01 00:06:37;;;;;;;18.77;15.38;;;20.90;69.30;;;;;;5009310;28;20204;-83
2024/02/01 00:09:03;;;;;;;18.83;14.50;;;20.90;69.30;;;;;;5010981;28;20201;-82
2024/02/01 00:11:30;;;;;;;16.33;14.20;;;20.90;69.30;;;;;;5006880;28;20291;-83
2024/02/01 00:13:57;;;;;;;19.15;15.57;;;20.90;69.20;;;;;;5008959;28;20745;-82
2024/02/01 00:16:25;;;;;;;23.77;16.38;;;20.90;69.20;;;;;;5011012;28;20199;-82
2024/02/01 00:18:52;;;;;;;17.17;15.35;;;20.90;69.30;;;;;;5008715;28;20208;-82
2024/02/01 00:21:18;;;;;;;15.20;13.60;;;20.90;69.10;;;;;;5010245;28;20736;-83
2024/02/01 00:23:45;;;;;;;16.83;14.63;;;20.90;69.30;;;;;;5008545;28;21945;-82
2024/02/01 00:26:12;;;;;;;18.08;13.95;;;20.90;69.20;;;;;;5009606;28;20215;-83
2024/02/01 00:28:39;;;;;;;15.98;14.32;;;20.90;69.10;;;;;;5010577;28;20217;-83
2024/02/01 00:31:05;;;;;;;17.98;14.43;;;20.90;69.10;;;;;;5003667;28;20760;-82
2024/02/01 00:33:33;;;;;;;15.00;12.25;;;20.90;69.20;;;;;;5012473;28;20207;-82
2024/02/01 00:36:00;;;;;;;18.27;13.32;;;20.90;69.20;;;;;;5011936;28;20215;-82
2024/02/01 00:38:27;;;;;;;16.15;13.57;;;20.90;69.30;;;;;;5009537;28;20205;-82
2024/02/01 00:40:53;;;;;;;16.40;14.05;;;20.90;69.20;;;;;;5011179;28;20613;-83
2024/02/01 00:43:20;;;;;;;14.35;12.07;;;20.80;69.20;;;;;;5004913;28;20202;-82
2024/02/01 00:45:47;;;;;;;15.60;13.95;;;20.80;69.20;;;;;;5007015;28;20208;-83
2024/02/01 00:48:14;;;;;;;14.25;12.75;;;20.80;69.20;;;;;;5009638;28;20204;-82
2024/02/01 00:50:42;;;;;;;17.73;13.52;;;20.80;69.20;;;;;;5009738;28;20223;-82
2024/02/01 00:53:08;;;;;;;16.05;13.70;;;20.80;69.10;;;;;;5009264;28;20204;-82
2024/02/01 00:55:35;;;;;;;15.18;13.50;;;20.80;69.80;;;;;;5011803;28;20211;-81
2024/02/01 00:58:02;;;;;;;16.10;13.32;;;20.80;69.00;;;;;;5007699;28;20262;-82
2024/02/01 01:00:28;;;;;;;16.85;13.50;;;20.80;69.10;;;;;;5010335;28;20196;-80
2024/02/01 01:02:55;;;;;;;16.27;13.70;;;20.70;69.10;;;;;;4998528;28;20571;-81
2024/02/01 01:05:22;;;;;;;15.15;13.55;;;20.70;69.10;;;;;;4998549;28;20206;-81
2024/02/01 01:07:50;;;;;;;14.35;12.95;;;20.70;69.10;;;;;;5009989;28;20196;-81
2024/02/01 01:10:17;;;;;;;15.45;13.85;;;20.70;69.10;;;;;;5006206;28;20215;-81
2024/02/01 01:12:43;;;;;;;14.52;12.95;;;20.70;69.00;;;;;;5007732;28;20211;-83
2024/02/01 01:15:10;;;;;;;13.43;11.80;;;20.70;69.00;;;;;;5004303;28;20207;-81
2024/02/01 01:17:38;;;;;;;13.07;11.75;;;20.70;68.90;;;;;;5008145;28;20203;-82
2024/02/01 01:20:06;;;;;;;14.52;12.65;;;20.70;68.90;;;;;;5010285;28;20720;-81
2024/02/01 01:22:33;;;;;;;16.25;12.45;;;20.70;69.00;;;;;;5009495;28;20195;-81
2024/02/01 01:25:01;;;;;;;14.70;13.23;;;20.70;69.00;;;;;;4989532;28;20214;-81
2024/02/01 01:27:27;;;;;;;13.88;12.43;;;20.70;69.00;;;;;;5003956;28;20212;-82
2024/02/01 01:29:54;;;;;;;13.93;12.43;;;20.60;68.90;;;;;;5005042;28;20215;-81
2024/02/01 01:32:21;;;;;;;14.48;12.98;;;20.60;69.00;;;;;;5006392;28;20623;-82
2024/02/01 01:34:48;;;;;;;14.48;12.98;;;20.60;68.90;;;;;;5008349;28;20199;-82
2024/02/01 01:37:14;;;;;;;16.00;13.25;;;20.70;68.90;;;;;;5010904;28;20195;-82
2024/02/01 01:39:41;;;;;;;13.75;12.23;;;20.60;68.90;;;;;;5008048;28;22419;-81
2024/02/01 01:42:09;;;;;;;14.13;11.85;;;20.60;68.90;;;;;;5007637;28;20212;-82
2024/02/01 01:44:36;;;;;;;13.77;12.27;;;20.60;68.90;;;;;;5009846;28;20206;-81
2024/02/01 01:47:02;;;;;;;15.55;12.20;;;20.60;68.90;;;;;;5005939;28;20241;-81
2024/02/01 01:49:30;;;;;;;13.38;11.90;;;20.60;68.90;;;;;;5006390;28;20199;-81
2024/02/01 01:51:57;;;;;;;14.10;12.27;;;20.60;68.90;;;;;;5009254;28;20200;-81
2024/02/01 01:54:26;;;;;;;14.35;11.50;;;20.60;68.90;;;;;;5011971;28;20207;-81
2024/02/01 01:56:53;;;;;;;12.65;11.30;;;20.60;68.90;;;;;;5010336;28;20203;-81
2024/02/01 01:59:22;;;;;;;12.45;10.80;;;20.60;68.80;;;;;;5003330;28;20204;-81
2024/02/01 02:01:50;;;;;;;13.95;12.52;;;20.60;68.80;;;;;;5004171;28;20200;-81
2024/02/01 02:04:18;;;;;;;12.70;11.00;;;20.60;68.90;;;;;;5008322;28;20199;-81
2024/02/01 02:06:44;;;;;;;12.88;11.50;;;20.60;68.80;;;;;;5007879;28;20227;-82
2024/02/01 02:09:13;;;;;;;12.35;11.05;;;20.60;68.90;;;;;;5010384;28;20202;-81
2024/02/01 02:11:43;;;;;;;12.32;11.13;;;20.60;68.90;;;;;;5009905;28;20228;-82
2024/02/01 02:14:11;;;;;;;11.73;10.57;;;20.50;68.80;;;;;;5009750;28;20204;-82
2024/02/01 02:16:39;;;;;;;12.38;11.00;;;20.60;68.90;;;;;;5014090;28;20211;-83
2024/02/01 02:19:09;;;;;;;14.48;12.98;;;20.60;68.90;;;;;;5013154;28;20210;-82
2024/02/01 02:21:40;;;;;;;15.20;12.48;;;20.60;68.70;;;;;;5011425;28;20199;-82
2024/02/01 02:24:08;;;;;;;13.32;10.70;;;20.50;68.70;;;;;;5011468;28;20204;-82
2024/02/01 02:26:35;;;;;;;15.20;11.68;;;20.50;68.70;;;;;;5010481;28;20219;-82
2024/02/01 02:29:03;;;;;;;14.40;12.90;;;20.50;68.60;;;;;;5006287;28;20196;-82
2024/02/01 02:31:30;;;;;;;12.20;10.27;;;20.50;68.80;;;;;;5011078;28;20216;-82
2024/02/01 02:33:57;;;;;;;12.55;11.10;;;20.50;68.80;;;;;;5014280;28;20196;-83
2024/02/01 02:36:25;;;;;;;11.48;10.27;;;20.50;68.80;;;;;;5004428;28;20216;-82
2024/02/01 02:38:51;;;;;;;13.70;12.27;;;20.50;68.80;;;;;;5011355;28;20222;-82
2024/02/01 02:41:19;;;;;;;12.15;10.85;;;20.50;68.60;;;;;;5015615;28;20196;-82
2024/02/01 02:43:47;;;;;;;11.73;10.23;;;20.50;68.70;;;;;;5013090;28;20795;-82
2024/02/01 02:46:13;;;;;;;10.80;9.65;;;20.50;68.60;;;;;;5015148;28;20215;-82
2024/02/01 02:48:40;;;;;;;11.30;9.55;;;20.50;68.70;;;;;;5012728;28;20211;-82
2024/02/01 02:51:07;;;;;;;11.18;10.05;;;20.50;68.70;;;;;;5011447;28;20712;-82
2024/02/01 02:53:34;;;;;;;11.55;9.55;;;20.50;68.60;;;;;;5014443;28;20192;-82
2024/02/01 02:56:01;;;;;;;12.85;10.73;;;20.50;68.70;;;;;;5010976;28;20662;-83
2024/02/01 02:58:29;;;;;;;10.98;9.85;;;20.50;68.70;;;;;;5012093;28;20203;-82
2024/02/01 03:00:55;;;;;;;11.23;9.73;;;20.50;68.60;;;;;;5013030;28;20644;-82
2024/02/01 03:03:22;;;;;;;10.60;9.48;;;20.40;68.40;;;;;;5013268;28;20335;-82
2024/02/01 03:05:49;;;;;;;10.70;9.60;;;20.40;68.60;;;;;;5008684;28;20342;-82
2024/02/01 03:08:16;;;;;;;12.13;10.80;;;20.40;68.60;;;;;;5012164;28;20196;-82
2024/02/01 03:10:42;;;;;;;11.25;10.13;;;20.40;68.60;;;;;;5011147;28;20226;-83
2024/02/01 03:13:09;;;;;;;10.95;9.85;;;20.40;68.60;;;;;;5012406;28;20195;-82
2024/02/01 03:15:38;;;;;;;9.88;8.45;;;20.40;68.60;;;;;;5011364;28;21187;-83
2024/02/01 03:18:05;;;;;;;12.25;10.00;;;20.40;68.60;;;;;;5006029;28;20679;-83
2024/02/01 03:20:32;;;;;;;11.30;10.25;;;20.40;68.60;;;;;;5012829;28;20222;-83
2024/02/01 03:22:59;;;;;;;11.82;9.85;;;20.40;68.60;;;;;;5008224;28;20692;-83
2024/02/01 03:25:29;;;;;;;10.27;9.20;;;20.40;68.50;;;;;;5010778;28;20205;-82
2024/02/01 03:28:00;;;;;;;10.82;9.60;;;20.40;68.50;;;;;;5010734;28;20283;-82
2024/02/01 03:30:27;;;;;;;11.27;10.07;;;20.40;68.50;;;;;;5011525;28;20219;-81
2024/02/01 03:32:56;;;;;;;11.75;9.93;;;20.40;68.60;;;;;;5008536;28;20192;-81
2024/02/01 03:35:23;;;;;;;12.48;10.50;;;20.40;68.60;;;;;;5012920;28;20204;-83
2024/02/01 03:37:50;;;;;;;11.13;10.00;;;20.40;68.60;;;;;;5009167;28;20200;-81
2024/02/01 03:40:18;;;;;;;10.95;9.77;;;20.40;68.60;;;;;;5012769;28;20226;-80
2024/02/01 03:42:46;;;;;;;11.05;9.95;;;20.40;68.60;;;;;;5009712;28;20686;-81
2024/02/01 03:45:13;;;;;;;9.98;8.98;;;20.40;68.60;;;;;;5011187;28;20209;-81
2024/02/01 03:47:40;;;;;;;10.25;9.10;;;20.30;68.50;;;;;;5012529;28;20210;-81
2024/02/01 03:50:09;;;;;;;10.20;9.00;;;20.30;68.50;;;;;;5008453;28;20223;-81
2024/02/01 03:52:37;;;;;;;9.95;8.93;;;20.30;68.50;;;;;;5009878;28;20208;-81
2024/02/01 03:55:16;;;;;;;9.93;8.95;;;20.30;68.50;;;;;;5011463;28;20251;-81
2024/02/01 03:57:43;;;;;;;9.30;8.35;;;20.30;68.60;;;;;;5011624;28;20561;-82
2024/02/01 04:00:24;;;;;;;9.40;8.50;;;20.30;68.50;;;;;;5011390;28;20212;-81
2024/02/01 04:02:53;;;;;;;10.98;9.20;;;20.30;68.50;;;;;;5014013;28;20215;-82
2024/02/01 04:05:21;;;;;;;9.73;8.73;;;20.30;68.60;;;;;;5013297;28;20200;-82
2024/02/01 04:07:48;;;;;;;11.18;9.00;;;20.30;68.50;;;;;;5005421;28;20223;-82
2024/02/01 04:10:15;;;;;;;11.23;9.13;;;20.30;68.50;;;;;;5012204;28;20219;-82
2024/02/01 04:12:41;;;;;;;9.30;8.30;;;20.30;68.60;;;;;;5012219;28;20200;-82
2024/02/01 04:15:09;;;;;;;9.43;8.43;;;20.30;68.50;;;;;;5012726;28;20213;-82
2024/02/01 04:17:36;;;;;;;10.10;8.10;;;20.30;68.40;;;;;;5012886;28;20200;-82
2024/02/01 04:20:04;;;;;;;10.40;9.40;;;20.30;68.50;;;;;;5014352;28;20200;-82
2024/02/01 04:22:32;;;;;;;11.05;9.18;;;20.30;68.60;;;;;;5011092;28;20199;-82
2024/02/01 04:24:58;;;;;;;11.38;9.38;;;20.30;68.60;;;;;;5006124;28;20654;-81
2024/02/01 04:27:25;;;;;;;9.40;8.20;;;20.20;68.50;;;;;;5011692;28;20203;-81
2024/02/01 04:29:52;;;;;;;10.85;9.32;;;20.20;68.50;;;;;;5012070;28;20694;-82
2024/02/01 04:32:20;;;;;;;9.82;8.82;;;20.20;68.40;;;;;;5006519;28;20238;-82
2024/02/01 04:34:46;;;;;;;10.05;8.75;;;20.30;68.50;;;;;;5007821;28;20295;-81
2024/02/01 04:37:13;;;;;;;9.80;8.50;;;20.30;68.40;;;;;;5010517;28;20698;-82
2024/02/01 04:39:42;;;;;;;11.48;9.10;;;20.30;68.40;;;;;;5011065;28;20204;-81
2024/02/01 04:42:23;;;;;;;11.05;9.30;;;20.20;68.40;;;;;;5010150;28;21340;-82
2024/02/01 04:44:50;;;;;;;9.85;8.00;;;20.20;68.30;;;;;;5011314;28;20206;-82
2024/02/01 04:47:17;;;;;;;9.63;8.73;;;20.20;68.40;;;;;;5009093;28;20556;-82
2024/02/01 04:49:43;;;;;;;9.32;8.40;;;20.20;68.40;;;;;;5010194;28;20203;-82
2024/02/01 04:52:10;;;;;;;9.15;8.05;;;20.20;68.30;;;;;;5010089;28;20223;-82
2024/02/01 04:54:37;;;;;;;9.50;8.55;;;20.20;68.40;;;;;;5008541;28;20856;-82
2024/02/01 04:57:13;;;;;;;9.93;8.32;;;20.20;68.40;;;;;;5009974;28;20204;-81
2024/02/01 04:59:43;;;;;;;9.50;8.50;;;20.20;68.30;;;;;;5009826;28;20203;-81
2024/02/01 05:02:10;;;;;;;9.93;8.93;;;20.20;68.40;;;;;;5008275;28;20289;-82
2024/02/01 05:04:36;;;;;;;9.25;8.35;;;20.20;68.40;;;;;;5008105;28;20204;-81
2024/02/01 05:07:05;;;;;;;8.80;7.90;;;20.20;68.50;;;;;;5007209;28;20204;-82
2024/02/01 05:09:33;;;;;;;8.82;7.97;;;20.20;68.40;;;;;;5006238;28;20204;-82
2024/02/01 05:12:00;;;;;;;9.18;8.02;;;20.20;68.40;;;;;;5013309;28;20553;-82
2024/02/01 05:14:28;;;;;;;7.80;7.00;;;20.20;68.30;;;;;;5008122;28;20588;-81
2024/02/01 05:16:55;;;;;;;8.27;7.47;;;20.20;68.30;;;;;;5006693;28;20206;-81
2024/02/01 05:19:22;;;;;;;7.82;7.07;;;20.20;68.30;;;;;;5006220;28;20207;-81
2024/02/01 05:21:52;;;;;;;10.50;8.90;;;20.20;68.20;;;;;;5008844;28;20191;-81
2024/02/01 05:24:19;;;;;;;9.25;8.07;;;20.20;68.40;;;;;;5007033;28;21274;-81
2024/02/01 05:26:50;;;;;;;8.20;6.90;;;20.10;68.20;;;;;;5008464;28;20208;-82
2024/02/01 05:29:18;;;;;;;8.50;7.38;;;20.10;68.20;;;;;;5009530;28;20211;-81
2024/02/01 05:31:47;;;;;;;8.73;6.72;;;20.10;68.20;;;;;;4990017;28;20227;-82
2024/02/01 05:34:14;;;;;;;7.55;6.85;;;20.10;68.40;;;;;;5007035;28;20245;-81
2024/02/01 05:36:41;;;;;;;8.75;7.95;;;20.10;68.30;;;;;;5009474;28;20199;-81
2024/02/01 05:39:24;;;;;;;8.90;8.00;;;20.10;68.30;;;;;;5011627;28;20207;-82
2024/02/01 05:41:51;;;;;;;8.32;7.35;;;20.10;68.20;;;;;;5011029;28;20846;-82
2024/02/01 05:44:18;;;;;;;8.80;7.57;;;20.10;68.10;;;;;;5010489;28;20217;-82
2024/02/01 05:46:46;;;;;;;8.68;7.15;;;20.20;68.40;;;;;;5006681;28;20208;-81
2024/02/01 05:49:18;;;;;;;8.55;7.70;;;20.10;68.20;;;;;;5009680;28;20279;-81
2024/02/01 05:51:45;;;;;;;8.18;7.30;;;20.10;68.10;;;;;;5013399;28;20224;-81
2024/02/01 05:54:12;;;;;;;7.97;7.18;;;20.10;68.20;;;;;;5013625;28;20211;-81
2024/02/01 05:56:38;;;;;;;8.35;6.95;;;20.10;68.30;;;;;;5004112;28;20638;-82
2024/02/01 05:59:05;;;;;;;7.30;6.57;;;20.10;68.20;;;;;;5014385;28;20210;-81
2024/02/01 06:01:32;;;;;;;8.90;7.97;;;20.10;68.30;;;;;;5014080;28;20630;-81
2024/02/01 06:04:00;;;;;;;7.93;7.18;;;20.10;68.20;;;;;;4991531;28;20204;-81
2024/02/01 06:06:27;;;;;;;8.55;7.65;;;20.10;68.30;;;;;;5016408;28;20195;-88
2024/02/01 06:08:57;;;;;;;7.38;6.68;;;20.10;68.20;;;;;;5016698;28;20210;-88
2024/02/01 06:11:23;;;;;;;7.82;6.90;;;20.10;68.20;;;;;;5018866;28;20218;-87
2024/02/01 06:13:50;;;;;;;7.57;6.82;;;20.10;68.30;;;;;;5016638;28;20204;-88
2024/02/01 06:16:17;;;;;;;7.18;6.47;;;20.10;68.30;;;;;;5015995;28;20199;-89
2024/02/01 06:18:44;;;;;;;7.70;7.00;;;20.10;68.20;;;;;;5014948;28;20200;-88
2024/02/01 06:21:16;;;;;;;7.45;6.65;;;20.10;68.20;;;;;;5015715;28;20210;-88
2024/02/01 06:23:44;;;;;;;8.02;6.97;;;20.10;68.30;;;;;;5016560;28;20217;-87
2024/02/01 06:26:19;;;;;;;7.53;6.78;;;20.10;68.30;;;;;;5016839;28;20208;-87
2024/02/01 06:28:46;;;;;;;6.00;5.40;;;20.10;68.30;;;;;;5017691;28;20317;-87
2024/02/01 06:31:13;;;;;;;7.60;6.80;;;20.10;68.40;;;;;;5015204;28;20211;-91
2024/02/01 06:33:40;;;;;;;8.10;7.22;;;20.10;68.40;;;;;;5016737;28;20212;-89
2024/02/01 06:36:13;;;;;;;6.82;6.13;;;20.10;68.40;;;;;;5015550;28;20582;-88
2024/02/01 06:41:38;;;;;;;7.82;7.13;;;20.00;68.30;;;;;;5014712;28;20203;-88
2024/02/01 06:44:09;;;;;;;7.85;7.15;;;20.10;68.50;;;;;;5019515;28;20199;-87
2024/02/01 06:47:05;;;;;;;7.88;6.70;;;20.10;68.50;;;;;;5015766;28;20214;-88
2024/02/01 06:49:59;;;;;;;7.28;6.57;;;20.10;68.40;;;;;;5016076;28;20208;-88
2024/02/01 06:52:35;;;;;;;8.00;6.05;;;20.10;68.50;;;;;;5005274;28;20230;-90
2024/02/01 06:57:53;;;;;;;8.13;6.80;;;20.10;68.50;;;;;;5016940;28;20261;-86
2024/02/01 07:00:40;;;;;;;6.68;6.07;;;20.10;68.50;;;;;;5016085;28;20208;-86
2024/02/01 07:03:31;;;;;;;6.88;5.65;;;20.10;68.50;;;;;;5016935;28;20200;-88
2024/02/01 07:06:05;;;;;;;8.50;6.32;;;20.00;68.30;;;;;;5016173;28;20632;-88
2024/02/01 07:08:45;;;;;;;6.35;5.75;;;20.00;68.40;;;;;;5018230;28;20654;-88
2024/02/01 07:11:24;;;;;;;6.13;5.53;;;20.00;68.40;;;;;;5014555;28;20324;-87
2024/02/01 07:14:08;;;;;;;6.60;6.00;;;20.00;68.30;;;;;;5016746;28;20282;-87
2024/02/01 07:16:54;;;;;;;5.72;5.22;;;20.00;68.30;;;;;;5015453;28;20202;-88
2024/02/01 07:19:52;;;;;;;6.13;5.50;;;20.00;68.30;;;;;;5017463;28;21046;-88
2024/02/01 07:22:34;;;;;;;6.03;5.47;;;20.00;68.30;;;;;;5016647;28;20202;-88
2024/02/01 07:25:10;;;;;;;6.72;6.13;;;20.00;68.30;;;;;;5015009;28;20215;-85
2024/02/01 07:57:55;;;;;;;13.45;5.32;;;20.20;69.60;;;;;;5013112;28;20242;-80
2024/02/01 08:00:33;;;;;;;5.78;4.90;;;20.20;70.30;;;;;;5008483;28;20342;-83
2024/02/01 08:03:22;;;;;;;5.93;5.30;;;20.30;70.40;;;;;;5008916;28;20199;-81
2024/02/01 08:08:34;;;;;;;5.38;4.88;;;20.30;70.20;;;;;;5014032;28;20322;-81
2024/02/01 08:11:01;;;;;;;6.15;5.50;;;20.30;70.00;;;;;;5013520;28;20207;-82
2024/02/01 08:13:27;;;;;;;5.32;4.82;;;20.30;70.00;;;;;;5013973;28;20712;-80
2024/02/01 08:15:56;;;;;;;7.60;5.05;;;20.40;70.00;;;;;;5008773;28;20203;-82
2024/02/01 08:18:24;;;;;;;5.78;5.22;;;20.30;70.00;;;;;;5004866;28;20207;-82
2024/02/01 08:20:50;;;;;;;4.72;4.32;;;20.40;69.90;;;;;;5011947;28;20218;-80
2024/02/01 08:23:19;;;;;;;5.88;4.88;;;20.40;69.90;;;;;;5013889;28;20207;-84
2024/02/01 08:25:47;;;;;;;5.13;4.63;;;20.40;69.80;;;;;;5011588;28;20207;-80
2024/02/01 08:28:14;;;;;;;6.38;4.05;;;20.40;69.70;;;;;;5012451;28;20218;-80
2024/02/01 08:30:42;;;;;;;4.45;4.03;;;20.40;69.70;;;;;;5012285;28;20210;-81
2024/02/01 08:33:18;;;;;;;5.43;4.93;;;20.40;69.70;;;;;;5006802;28;20211;-79
2024/02/01 08:35:45;;;;;;;4.70;4.18;;;20.40;69.60;;;;;;5007486;28;20230;-81
2024/02/01 08:38:15;;;;;;;5.53;4.53;;;20.40;69.60;;;;;;5015033;28;20248;-90
2024/02/01 08:40:42;;;;;;;6.40;4.50;;;20.40;69.70;;;;;;5016107;28;20204;-83
2024/02/01 08:43:10;;;;;;;4.65;4.25;;;20.50;69.90;;;;;;5016701;28;20211;-82
2024/02/01 08:45:39;;;;;;;5.18;3.97;;;20.50;70.00;;;;;;5016296;28;20536;-84
2024/02/01 08:48:08;;;;;;;4.50;4.10;;;20.50;70.30;;;;;;5005435;28;20612;-82
2024/02/01 08:50:42;;;;;;;4.30;3.92;;;20.60;70.60;;;;;;5017677;28;20295;-82
2024/02/01 08:53:09;;;;;;;4.15;3.75;;;20.60;70.60;;;;;;5014745;28;20218;-89
2024/02/01 08:55:36;;;;;;;4.57;4.13;;;20.60;70.90;;;;;;5017303;28;20204;-80
2024/02/01 08:58:09;;;;;;;6.05;4.30;;;20.60;71.10;;;;;;5015730;28;20198;-83
2024/02/01 09:00:36;;;;;;;5.47;4.18;;;20.60;71.00;;;;;;5014310;28;20225;-83
2024/02/01 09:03:05;;;;;;;4.72;4.22;;;20.60;71.40;;;;;;5014382;28;20199;-82
2024/02/01 09:05:33;;;;;;;5.45;4.95;;;20.70;71.70;;;;;;5012855;28;20207;-84
2024/02/01 09:08:02;;;;;;;4.60;3.65;;;20.70;71.80;;;;;;5008240;28;20202;-84
2024/02/01 09:10:29;;;;;;;4.32;3.90;;;20.70;72.00;;;;;;5015808;28;20207;-87
2024/02/01 09:12:56;;;;;;;4.60;4.20;;;20.70;71.80;;;;;;5017454;28;20227;-84
2024/02/01 09:15:23;;;;;;;5.03;4.57;;;20.70;72.10;;;;;;5016386;28;21186;-87
2024/02/01 09:17:49;;;;;;;4.45;3.75;;;20.70;72.40;;;;;;5012675;28;22647;-87
2024/02/01 09:20:21;;;;;;;4.53;4.10;;;20.70;72.60;;;;;;5015302;28;20666;-86
2024/02/01 09:22:50;;;;;;;4.45;4.03;;;20.70;72.90;;;;;;5015049;28;21356;-86
2024/02/01 09:25:20;;;;;;;4.63;4.22;;;20.80;73.10;;;;;;5015819;28;20207;-85
2024/02/01 09:27:48;;;;;;;5.10;4.00;;;20.80;73.70;;;;;;5018197;28;20237;-89
2024/02/01 09:30:17;;;;;;;6.82;4.20;;;20.80;73.00;;;;;;5011712;28;21305;-85
2024/02/01 09:32:44;;;;;;;4.53;3.57;;;20.90;73.60;;;;;;4917187;28;20227;-85
2024/02/01 09:35:12;;;;;;;5.30;4.03;;;20.90;73.50;;;;;;4889769;28;20592;-86
2024/02/01 09:37:38;;;;;;;4.63;4.20;;;20.90;74.10;;;;;;4872532;28;20208;-85
2024/02/01 09:40:10;;;;;;;10.25;3.85;;;20.90;72.90;;;;;;4981222;28;21494;-85
2024/02/01 09:42:39;;;;;;;7.30;3.40;;;20.90;73.40;;;;;;5001607;28;20234;-89
2024/02/01 09:45:09;;;;;;;3.63;3.33;;;20.90;73.40;;;;;;5019535;28;20211;-84
2024/02/01 09:47:43;;;;;;;4.25;3.53;;;20.90;73.10;;;;;;5019629;28;20204;-82
2024/02/01 09:50:12;;;;;;;4.63;4.20;;;20.90;73.20;;;;;;5018384;28;20203;-87
2024/02/01 09:52:40;;;;;;;4.15;3.75;;;21.00;73.70;;;;;;5016555;28;20219;-85
2024/02/01 09:55:08;;;;;;;3.88;3.50;;;21.00;73.70;;;;;;5017179;28;20204;-85
2024/02/01 09:57:40;;;;;;;3.78;3.38;;;21.00;74.10;;;;;;5009018;28;20204;-86
2024/02/01 10:00:14;;;;;;;3.30;2.90;;;21.00;74.40;;;;;;5012831;28;20211;-85
2024/02/01 10:02:43;;;;;;;4.78;3.40;;;21.00;74.60;;;;;;5007804;28;20200;-89
2024/02/01 10:05:11;;;;;;;3.83;3.00;;;21.00;74.90;;;;;;5019590;28;21198;-86
2024/02/01 10:07:38;;;;;;;4.20;3.30;;;21.00;75.60;;;;;;5019742;28;20203;-88
2024/02/01 10:10:05;;;;;;;5.97;3.90;;;21.00;75.80;;;;;;5017847;28;20199;-88
2024/02/01 10:12:34;;;;;;;5.72;4.15;;;21.10;75.70;;;;;;5018445;28;20226;-88
2024/02/01 10:15:08;;;;;;;4.63;3.15;;;21.10;75.80;;;;;;5006730;28;20211;-88
2024/02/01 10:17:45;;;;;;;6.25;3.35;;;21.10;76.40;;;;;;5016200;28;20204;-88
2024/02/01 10:20:33;;;;;;;6.00;3.00;;;21.00;76.40;;;;;;5018204;28;20203;-85
2024/02/01 10:23:02;;;;;;;4.35;3.95;;;21.00;76.70;;;;;;5016508;28;20727;-88
2024/02/01 10:25:33;;;;;;;7.40;3.47;;;21.10;77.60;;;;;;5018267;28;20207;-89
2024/02/01 10:28:01;;;;;;;5.07;4.55;;;21.10;78.00;;;;;;5014105;28;20208;-87
2024/02/01 10:30:28;;;;;;;5.45;3.00;;;21.10;78.30;;;;;;5018196;28;20659;-83
2024/02/01 10:33:01;;;;;;;10.05;4.03;;;21.20;78.40;;;;;;5014943;28;20882;-85
2024/02/01 10:35:29;;;;;;;5.82;3.65;;;21.20;79.00;;;;;;5018348;28;22256;-82
2024/02/01 10:38:01;;;;;;;10.48;2.85;;;21.20;79.20;;;;;;5016990;28;20982;-86
2024/02/01 10:40:39;;;;;;;5.65;3.40;;;21.30;79.00;;;;;;5019904;28;20789;-87
2024/02/01 10:43:06;;;;;;;4.00;3.60;;;21.30;78.80;;;;;;5015041;28;20196;-84
2024/02/01 10:45:36;;;;;;;7.13;4.20;;;21.20;78.70;;;;;;5017544;28;20196;-89
2024/02/01 10:48:10;;;;;;;5.20;4.03;;;21.20;78.70;;;;;;5014666;28;20201;-88
2024/02/01 10:50:39;;;;;;;6.10;3.33;;;21.20;78.70;;;;;;5007659;28;20291;-85
2024/02/01 10:53:07;;;;;;;5.70;4.25;;;21.20;78.60;;;;;;5009546;28;21196;-88
2024/02/01 10:55:37;;;;;;;6.38;3.08;;;21.20;78.40;;;;;;5013180;28;20228;-85
2024/02/01 10:58:05;;;;;;;9.88;3.30;;;21.20;76.80;;;;;;5015276;28;20211;-85
2024/02/01 11:00:33;;;;;;;13.40;4.18;;;21.10;70.00;;;;;;5019328;28;20673;-87
2024/02/01 11:03:05;;;;;;;11.77;4.32;;;20.90;66.10;;;;;;5017001;28;20207;-90
2024/02/01 11:05:33;;;;;;;11.63;4.07;;;20.80;64.20;;;;;;5015749;28;20200;-91
2024/02/01 11:08:02;;;;;;;9.57;3.75;;;20.70;60.90;;;;;;5019061;28;20203;-86
2024/02/01 11:10:29;;;;;;;13.57;4.60;;;20.60;59.30;;;;;;5014199;28;20214;-88
2024/02/01 11:12:56;;;;;;;11.57;3.72;;;20.50;58.90;;;;;;5015730;28;21658;-86
2024/02/01 11:15:24;;;;;;;8.68;4.05;;;20.50;60.30;;;;;;5016224;28;20208;-86
2024/02/01 11:17:51;;;;;;;6.90;2.42;;;20.60;62.40;;;;;;5017503;28;20199;-88
2024/02/01 11:20:23;;;;;;;11.75;3.08;;;20.70;62.70;;;;;;5013025;28;20218;-86
2024/02/01 11:22:57;;;;;;;6.95;2.70;;;20.80;63.50;;;;;;5015085;28;20358;-88
2024/02/01 11:25:28;;;;;;;6.55;2.83;;;20.90;64.20;;;;;;5017115;28;20201;-87
2024/02/01 11:27:55;;;;;;;7.10;2.22;;;20.90;66.30;;;;;;5015477;28;20212;-89
2024/02/01 11:30:28;;;;;;;4.80;3.42;;;21.00;65.60;;;;;;5015208;28;20253;-87
2024/02/01 11:32:55;;;;;;;7.40;3.28;;;21.00;65.60;;;;;;5014882;28;24047;-87
2024/02/01 11:35:24;;;;;;;7.70;3.35;;;21.00;66.20;;;;;;5017252;28;20208;-88
2024/02/01 11:38:01;;;;;;;8.18;3.05;;;21.10;66.50;;;;;;5021656;28;20662;-88
2024/02/01 11:40:28;;;;;;;8.10;3.60;;;21.10;66.60;;;;;;5015646;28;21260;-87
2024/02/01 11:42:58;;;;;;;6.50;3.43;;;21.10;67.00;;;;;;5021832;28;20196;-88
2024/02/01 11:45:25;;;;;;;6.55;2.83;;;21.20;67.40;;;;;;5021440;28;21509;-85
2024/02/01 11:47:53;;;;;;;5.20;2.55;;;21.30;67.40;;;;;;5017446;28;22199;-88
2024/02/01 11:50:23;;;;;;;6.85;2.97;;;21.30;67.60;;;;;;5018810;28;21032;-88
2024/02/01 11:53:00;;;;;;;4.65;2.50;;;21.30;67.90;;;;;;5018857;28;20211;-88
2024/02/01 11:55:29;;;;;;;8.63;2.50;;;21.30;67.90;;;;;;5020722;28;20227;-89
2024/02/01 11:57:59;;;;;;;5.50;2.38;;;21.30;68.10;;;;;;5017250;28;20210;-88
2024/02/01 12:00:25;;;;;;;4.13;2.60;;;21.30;68.40;;;;;;5019536;28;20270;-90
2024/02/01 12:02:52;;;;;;;5.10;2.50;;;21.40;68.60;;;;;;5017360;28;20474;-86
2024/02/01 12:05:21;;;;;;;6.67;2.70;;;21.40;68.60;;;;;;5017806;28;20194;-90
2024/02/01 12:07:48;;;;;;;5.23;3.20;;;21.50;69.00;;;;;;5016820;28;20488;-88
2024/02/01 12:10:17;;;;;;;4.33;2.30;;;21.50;68.80;;;;;;5018475;28;20463;-87
2024/02/01 12:12:45;;;;;;;7.60;3.00;;;21.50;69.00;;;;;;5009799;28;20501;-86
2024/02/01 12:15:14;;;;;;;10.93;3.67;;;21.60;69.30;;;;;;5016475;28;20451;-87
2024/02/01 12:17:44;;;;;;;4.00;2.80;;;21.60;69.50;;;;;;5013400;28;20508;-87
2024/02/01 12:20:12;;;;;;;6.87;3.00;;;21.70;69.60;;;;;;5019282;28;20453;-89
2024/02/01 12:22:39;;;;;;;6.00;3.03;;;21.70;69.80;;;;;;5011350;28;22543;-90
2024/02/01 12:25:12;;;;;;;6.30;3.37;;;21.70;69.80;;;;;;5012906;28;20472;-85
2024/02/01 12:27:41;;;;;;;7.77;3.40;;;21.70;70.00;;;;;;5012080;28;21334;-82
2024/02/01 12:30:13;;;;;;;5.23;2.73;;;21.60;69.90;;;;;;5013084;28;20462;-86
2024/02/01 12:32:43;;;;;;;5.93;3.20;;;21.70;70.10;;;;;;5015477;28;20903;-86
2024/02/01 12:35:12;;;;;;;5.10;3.00;;;21.70;70.00;;;;;;5018130;28;20651;-86
2024/02/01 12:37:40;;;;;;;5.27;3.00;;;21.70;70.90;;;;;;5018207;28;20540;-87
2024/02/01 12:40:10;;;;;;;4.77;2.53;;;21.70;70.10;;;;;;5019492;28;20489;-89
2024/02/01 12:42:38;;;;;;;6.67;2.60;;;21.70;70.10;;;;;;5018986;28;21617;-87
2024/02/01 12:45:08;;;;;;;6.07;2.50;;;21.80;70.30;;;;;;5011631;28;20451;-87
2024/02/01 12:47:37;;;;;;;6.13;2.27;;;21.80;70.30;;;;;;5015928;28;20965;-86
2024/02/01 12:50:06;;;;;;;8.60;2.97;;;21.80;70.30;;;;;;5016088;28;20453;-86
2024/02/01 12:52:33;;;;;;;7.10;2.70;;;21.80;70.30;;;;;;5013317;28;20469;-86
2024/02/01 12:55:00;;;;;;;4.20;2.40;;;21.80;70.40;;;;;;5020047;28;20501;-87
2024/02/01 12:57:27;;;;;;;3.20;2.10;;;21.80;70.40;;;;;;5019921;28;20541;-86
2024/02/01 12:59:57;;;;;;;3.60;1.97;;;21.80;70.40;;;;;;5020204;28;21107;-85
2024/02/01 13:02:26;;;;;;;5.23;2.60;;;21.80;70.40;;;;;;5015969;28;20489;-85
2024/02/01 13:04:53;;;;;;;4.53;2.50;;;21.80;70.40;;;;;;5019439;28;20458;-87
2024/02/01 13:07:21;;;;;;;4.30;2.60;;;21.90;70.40;;;;;;5018926;28;20562;-88
2024/02/01 13:09:48;;;;;;;5.57;2.70;;;21.90;70.50;;;;;;5020589;28;20450;-90
2024/02/01 13:12:21;;;;;;;5.20;2.60;;;21.80;70.40;;;;;;5022703;28;21115;-84
2024/02/01 13:14:57;;;;;;;5.40;2.93;;;21.90;70.50;;;;;;5016362;28;20475;-84
2024/02/01 13:17:26;;;;;;;4.90;2.47;;;21.90;70.50;;;;;;5018456;28;20457;-81
2024/02/01 13:19:53;;;;;;;3.60;2.57;;;21.90;70.50;;;;;;5020358;28;20873;-86
2024/02/01 13:22:20;;;;;;;3.50;2.57;;;21.90;69.50;;;;;;5017823;28;20458;-85
2024/02/01 13:24:47;;;;;;;5.07;3.07;;;21.90;69.40;;;;;;5019445;28;20508;-83
2024/02/01 13:27:14;;;;;;;3.47;2.13;;;21.90;69.60;;;;;;5020635;28;20450;-84
2024/02/01 13:29:43;;;;;;;4.80;2.90;;;22.00;70.30;;;;;;5019154;28;20550;-83